Time;durP1;ratioP1;P1;durP2;ratioP2;P2;SDS_P1;SDS_P2;PMS_P1;PMS_P2;Temp;Humidity;BMP_temperature;BMP_pressure;BME280_temperature;BME280_humidity;BME280_pressure;Samples;Min_cycle;Max_cycle;Signal;HPM_P1;HPM_P2
2023/05/11 00:01:30;;;;;;;3.08;2.10;;;;;;;;;;5095087;28;20542;-62
2023/05/11 00:03:56;;;;;;;2.97;2.50;;;;;;;;;;5095436;28;20027;-62
2023/05/11 00:06:23;;;;;;;4.63;2.45;;;;;;;;;;5095305;28;20360;-62
2023/05/11 00:08:48;;;;;;;2.50;2.20;;;;;;;;;;5095048;28;20076;-62
2023/05/11 00:11:14;;;;;;;3.60;2.20;;;;;;;;;;5095078;28;20024;-63
2023/05/11 00:13:40;;;;;;;3.28;2.20;;;;;;;;;;5094925;28;20380;-63
2023/05/11 00:16:05;;;;;;;2.50;2.30;;;;;;;;;;5094758;28;20024;-62
2023/05/11 00:18:31;;;;;;;3.13;2.30;;;;;;;;;;5094799;28;20092;-62
2023/05/11 00:20:56;;;;;;;2.72;2.20;;;;;;;;;;5094825;28;20031;-62
2023/05/11 00:23:22;;;;;;;2.90;2.30;;;;;;;;;;5093020;28;20024;-62
2023/05/11 00:25:48;;;;;;;4.80;2.17;;;;;;;;;;5092261;28;20115;-62
2023/05/11 00:28:13;;;;;;;3.92;2.15;;;;;;;;;;5093690;28;20061;-62
2023/05/11 00:30:40;;;;;;;2.83;1.90;;;;;;;;;;5092508;28;20030;-63
2023/05/11 00:33:06;;;;;;;3.47;2.13;;;;;;;;;;5091998;28;20473;-62
2023/05/11 00:35:31;;;;;;;3.88;2.30;;;;;;;;;;5093421;28;20112;-63
2023/05/11 00:37:57;;;;;;;3.35;2.47;;;;;;;;;;5091749;28;20456;-62
2023/05/11 00:40:23;;;;;;;2.47;2.28;;;;;;;;;;5093064;28;20412;-62
2023/05/11 00:42:49;;;;;;;3.75;2.20;;;;;;;;;;5093490;28;20016;-62
2023/05/11 00:45:14;;;;;;;3.15;2.28;;;;;;;;;;5094312;28;20027;-62
2023/05/11 00:47:40;;;;;;;3.20;2.30;;;;;;;;;;5094009;28;20036;-62
2023/05/11 00:50:07;;;;;;;3.20;2.40;;;;;;;;;;5093701;28;20106;-62
2023/05/11 00:52:33;;;;;;;2.70;2.20;;;;;;;;;;5093164;28;20031;-62
2023/05/11 00:54:58;;;;;;;2.33;2.15;;;;;;;;;;5092898;28;20020;-63
2023/05/11 00:57:24;;;;;;;4.40;2.15;;;;;;;;;;5093872;28;20043;-62
2023/05/11 00:59:50;;;;;;;5.95;2.13;;;;;;;;;;5093549;28;20020;-62
2023/05/11 01:02:16;;;;;;;3.45;2.05;;;;;;;;;;5093682;28;20043;-62
2023/05/11 01:04:42;;;;;;;2.13;1.92;;;;;;;;;;5093985;28;20468;-63
2023/05/11 01:07:13;;;;;;;2.75;2.13;;;;;;;;;;5093837;28;20035;-62
2023/05/11 01:09:58;;;;;;;3.65;2.20;;;;;;;;;;5093889;28;20110;-62
2023/05/11 01:12:32;;;;;;;2.65;2.13;;;;;;;;;;5094092;28;20135;-62
2023/05/11 01:15:08;;;;;;;2.95;2.40;;;;;;;;;;5094051;28;20035;-62
2023/05/11 01:17:47;;;;;;;3.30;2.08;;;;;;;;;;5093499;28;20503;-62
2023/05/11 01:20:26;;;;;;;2.58;2.13;;;;;;;;;;5093629;28;20027;-62
2023/05/11 01:23:06;;;;;;;2.60;2.10;;;;;;;;;;5093896;28;20436;-62
2023/05/11 01:25:53;;;;;;;2.78;2.08;;;;;;;;;;5093813;28;20032;-62
2023/05/11 01:28:34;;;;;;;3.15;1.92;;;;;;;;;;5093738;28;20024;-62
2023/05/11 01:31:07;;;;;;;2.30;2.10;;;;;;;;;;5093433;28;20476;-62
2023/05/11 01:33:35;;;;;;;2.38;2.10;;;;;;;;;;5093433;28;20032;-62
2023/05/11 01:36:06;;;;;;;3.28;1.98;;;;;;;;;;5093260;28;20026;-63
2023/05/11 01:38:34;;;;;;;3.28;1.98;;;;;;;;;;5093364;28;20055;-62
2023/05/11 01:41:05;;;;;;;2.40;2.10;;;;;;;;;;5093178;28;20051;-62
2023/05/11 01:43:34;;;;;;;2.65;2.20;;;;;;;;;;5093589;28;20063;-62
2023/05/11 01:46:02;;;;;;;4.63;2.17;;;;;;;;;;5093137;28;20054;-62
2023/05/11 01:48:32;;;;;;;2.30;2.10;;;;;;;;;;5092920;28;20023;-62
2023/05/11 01:51:00;;;;;;;3.75;2.30;;;;;;;;;;5093445;28;20101;-62
2023/05/11 01:53:31;;;;;;;2.10;2.00;;;;;;;;;;5093224;28;20363;-62
2023/05/11 01:55:57;;;;;;;;;;;;;;;;;;5093469;28;20463;-62
2023/05/11 01:58:24;;;;;;;2.38;2.17;;;;;;;;;;5093007;28;19919;-62
2023/05/11 02:00:52;;;;;;;2.78;2.15;;;;;;;;;;5092928;28;20028;-62
2023/05/11 02:03:18;;;;;;;2.88;2.10;;;;;;;;;;5093214;28;20032;-62
2023/05/11 02:05:46;;;;;;;2.63;1.83;;;;;;;;;;5092864;28;20035;-62
2023/05/11 02:08:13;;;;;;;2.42;2.10;;;;;;;;;;5092863;28;20024;-62
2023/05/11 02:10:41;;;;;;;4.30;1.90;;;;;;;;;;5093078;28;20048;-62
2023/05/11 02:13:08;;;;;;;2.15;1.88;;;;;;;;;;5092715;28;20024;-62
2023/05/11 02:15:37;;;;;;;2.28;2.08;;;;;;;;;;5092985;28;20147;-62
2023/05/11 02:18:05;;;;;;;3.17;2.15;;;;;;;;;;5091382;28;20028;-62
2023/05/11 02:20:32;;;;;;;2.30;2.10;;;;;;;;;;5092647;28;20078;-63
2023/05/11 02:22:59;;;;;;;2.95;2.00;;;;;;;;;;5092727;28;20035;-62
2023/05/11 02:25:26;;;;;;;2.95;2.40;;;;;;;;;;5092626;28;20467;-63
2023/05/11 02:27:52;;;;;;;2.53;2.20;;;;;;;;;;5092658;28;20042;-63
2023/05/11 02:30:17;;;;;;;3.78;2.22;;;;;;;;;;5092794;28;20099;-62
2023/05/11 02:32:48;;;;;;;3.33;2.30;;;;;;;;;;5092483;28;20540;-62
2023/05/11 02:35:27;;;;;;;2.45;2.03;;;;;;;;;;5092728;28;20028;-62
2023/05/11 02:37:56;;;;;;;2.70;2.30;;;;;;;;;;5092628;28;20039;-63
2023/05/11 02:40:30;;;;;;;1.90;1.80;;;;;;;;;;5092172;28;20039;-62
2023/05/11 02:43:01;;;;;;;4.03;2.00;;;;;;;;;;5092694;28;20090;-62
2023/05/11 02:45:31;;;;;;;;;;;;;;;;;;5092817;28;20030;-63
2023/05/11 02:47:58;;;;;;;2.47;2.00;;;;;;;;;;5092311;28;19912;-63
2023/05/11 02:50:27;;;;;;;2.60;2.10;;;;;;;;;;5092246;28;20094;-62
2023/05/11 02:52:55;;;;;;;2.45;2.08;;;;;;;;;;5091355;28;20460;-62
2023/05/11 02:55:22;;;;;;;2.60;2.40;;;;;;;;;;5092551;28;20032;-62
2023/05/11 02:57:48;;;;;;;2.30;2.10;;;;;;;;;;5092208;28;20035;-62
2023/05/11 03:00:15;;;;;;;3.92;2.08;;;;;;;;;;5092453;28;20024;-62
2023/05/11 03:02:41;;;;;;;2.38;1.92;;;;;;;;;;5096364;28;20020;-62
2023/05/11 03:05:06;;;;;;;2.28;2.08;;;;;;;;;;5096540;28;20480;-62
2023/05/11 03:07:32;;;;;;;3.05;2.05;;;;;;;;;;5096219;28;20032;-62
2023/05/11 03:09:59;;;;;;;2.28;1.80;;;;;;;;;;5096275;28;20020;-63
2023/05/11 03:12:30;;;;;;;2.28;2.05;;;;;;;;;;5094793;28;20027;-62
2023/05/11 03:14:57;;;;;;;2.25;2.00;;;;;;;;;;5096139;28;20024;-63
2023/05/11 03:17:23;;;;;;;2.10;1.90;;;;;;;;;;5094685;28;20028;-61
2023/05/11 03:19:50;;;;;;;2.33;2.10;;;;;;;;;;5096341;28;20028;-61
2023/05/11 03:22:16;;;;;;;2.55;2.10;;;;;;;;;;5096031;28;20024;-61
2023/05/11 03:24:42;;;;;;;2.30;2.10;;;;;;;;;;5095876;28;20119;-61
2023/05/11 03:27:10;;;;;;;2.10;1.90;;;;;;;;;;5096130;28;20035;-61
2023/05/11 03:29:38;;;;;;;2.40;1.85;;;;;;;;;;5095827;28;20024;-61
2023/05/11 03:32:04;;;;;;;2.00;1.80;;;;;;;;;;5095749;28;20035;-61
2023/05/11 03:34:31;;;;;;;3.25;1.90;;;;;;;;;;5095783;28;20032;-61
2023/05/11 03:36:57;;;;;;;2.05;1.88;;;;;;;;;;5095898;28;20020;-61
2023/05/11 03:39:23;;;;;;;2.50;2.00;;;;;;;;;;5095426;28;20044;-61
2023/05/11 03:41:52;;;;;;;1.85;1.75;;;;;;;;;;5095832;28;20020;-61
2023/05/11 03:44:20;;;;;;;2.30;2.10;;;;;;;;;;5095837;28;20109;-61
2023/05/11 03:46:47;;;;;;;7.45;2.20;;;;;;;;;;5095506;28;20024;-61
2023/05/11 03:49:14;;;;;;;4.22;2.13;;;;;;;;;;5095811;28;20421;-61
2023/05/11 03:51:40;;;;;;;1.92;1.70;;;;;;;;;;5095435;28;20035;-61
2023/05/11 03:54:06;;;;;;;2.10;1.90;;;;;;;;;;5095400;28;20028;-61
2023/05/11 03:56:35;;;;;;;2.10;1.90;;;;;;;;;;5095210;28;20094;-61
2023/05/11 03:59:02;;;;;;;2.03;1.75;;;;;;;;;;5095580;28;20031;-61
2023/05/11 04:01:29;;;;;;;2.40;2.03;;;;;;;;;;5095240;28;20023;-61
2023/05/11 04:03:55;;;;;;;2.58;2.20;;;;;;;;;;5095156;28;20035;-61
2023/05/11 04:06:20;;;;;;;2.22;1.90;;;;;;;;;;5093875;28;20032;-61
2023/05/11 04:08:46;;;;;;;3.13;2.00;;;;;;;;;;5095031;28;20026;-61
2023/05/11 04:11:11;;;;;;;2.28;2.08;;;;;;;;;;5094504;28;20027;-61
2023/05/11 04:13:37;;;;;;;1.88;1.77;;;;;;;;;;5094956;28;20476;-61
2023/05/11 04:16:03;;;;;;;2.40;2.20;;;;;;;;;;5094846;28;20028;-62
2023/05/11 04:18:28;;;;;;;2.13;1.92;;;;;;;;;;5095180;28;20031;-62
2023/05/11 04:20:55;;;;;;;2.13;1.70;;;;;;;;;;5095088;28;20020;-60
2023/05/11 04:23:20;;;;;;;2.97;1.90;;;;;;;;;;5094828;28;20483;-61
2023/05/11 04:25:46;;;;;;;2.40;1.92;;;;;;;;;;5094824;28;20056;-61
2023/05/11 04:28:11;;;;;;;2.58;2.05;;;;;;;;;;5094690;28;20021;-61
2023/05/11 04:30:37;;;;;;;3.45;2.20;;;;;;;;;;5094874;28;20375;-61
2023/05/11 04:33:02;;;;;;;2.55;1.83;;;;;;;;;;5094905;28;20447;-62
2023/05/11 04:35:28;;;;;;;2.28;2.00;;;;;;;;;;5094777;28;20557;-61
2023/05/11 04:37:53;;;;;;;3.17;2.47;;;;;;;;;;5094338;28;20036;-62
2023/05/11 04:40:19;;;;;;;2.63;2.42;;;;;;;;;;5094271;28;20044;-62
2023/05/11 04:42:44;;;;;;;2.28;2.08;;;;;;;;;;5094723;28;20035;-61
2023/05/11 04:45:10;;;;;;;2.40;2.20;;;;;;;;;;5094404;28;20372;-61
2023/05/11 04:47:36;;;;;;;2.20;1.98;;;;;;;;;;5094635;28;20031;-60
2023/05/11 04:50:01;;;;;;;2.10;1.90;;;;;;;;;;5094198;28;20476;-62
2023/05/11 04:52:27;;;;;;;2.50;2.08;;;;;;;;;;5094181;28;20110;-63
2023/05/11 04:54:52;;;;;;;4.38;2.25;;;;;;;;;;5094074;28;20036;-63
2023/05/11 04:57:18;;;;;;;2.28;2.08;;;;;;;;;;5093980;28;20040;-60
2023/05/11 04:59:43;;;;;;;2.17;1.98;;;;;;;;;;5094367;28;20036;-62
2023/05/11 05:02:09;;;;;;;2.10;1.90;;;;;;;;;;5092707;28;20020;-61
2023/05/11 05:04:35;;;;;;;2.17;1.98;;;;;;;;;;5092672;28;20028;-62
2023/05/11 05:07:01;;;;;;;2.17;1.90;;;;;;;;;;5094203;28;20028;-62
2023/05/11 05:09:26;;;;;;;1.90;1.80;;;;;;;;;;5093937;28;20387;-63
2023/05/11 05:11:52;;;;;;;2.22;2.00;;;;;;;;;;5094000;28;20032;-60
2023/05/11 05:14:19;;;;;;;2.33;2.13;;;;;;;;;;5093977;28;20435;-63
2023/05/11 05:16:44;;;;;;;2.58;2.10;;;;;;;;;;5093627;28;20032;-62
2023/05/11 05:19:11;;;;;;;2.13;1.95;;;;;;;;;;5093607;28;20024;-62
2023/05/11 05:21:37;;;;;;;2.55;2.00;;;;;;;;;;5093541;28;20468;-62
2023/05/11 05:24:04;;;;;;;2.15;1.90;;;;;;;;;;5092900;28;20040;-62
2023/05/11 05:26:30;;;;;;;2.17;1.98;;;;;;;;;;5093914;28;20383;-63
2023/05/11 05:28:56;;;;;;;1.98;1.88;;;;;;;;;;5093430;28;20031;-61
2023/05/11 05:31:21;;;;;;;2.72;2.10;;;;;;;;;;5092216;28;20115;-62
2023/05/11 05:33:47;;;;;;;2.90;2.17;;;;;;;;;;5093718;28;20028;-61
2023/05/11 05:36:12;;;;;;;3.83;2.28;;;;;;;;;;5093342;28;20641;-62
2023/05/11 05:38:38;;;;;;;2.30;1.90;;;;;;;;;;5093574;28;20028;-63
2023/05/11 05:41:03;;;;;;;2.05;1.95;;;;;;;;;;5093003;28;20076;-62
2023/05/11 05:43:29;;;;;;;2.38;2.20;;;;;;;;;;5091311;28;20028;-60
2023/05/11 05:45:54;;;;;;;3.63;2.30;;;;;;;;;;5092516;28;20053;-60
2023/05/11 05:48:20;;;;;;;2.60;2.35;;;;;;;;;;5092501;28;20043;-62
2023/05/11 05:50:46;;;;;;;2.38;2.17;;;;;;;;;;5092949;28;20028;-62
2023/05/11 05:53:11;;;;;;;2.83;2.15;;;;;;;;;;5091601;28;20540;-62
2023/05/11 05:55:37;;;;;;;2.45;2.17;;;;;;;;;;5092999;28;20112;-62
2023/05/11 05:58:02;;;;;;;2.70;2.15;;;;;;;;;;5092675;28;20369;-61
2023/05/11 06:00:28;;;;;;;3.05;2.08;;;;;;;;;;5092976;28;20016;-62
2023/05/11 06:02:54;;;;;;;2.67;2.30;;;;;;;;;;5092952;28;20027;-62
2023/05/11 06:05:20;;;;;;;2.60;2.30;;;;;;;;;;5093115;28;20097;-60
2023/05/11 06:07:45;;;;;;;2.55;2.05;;;;;;;;;;5092758;28;20034;-62
2023/05/11 06:10:11;;;;;;;3.22;2.38;;;;;;;;;;5092834;28;20077;-61
2023/05/11 06:12:36;;;;;;;2.40;2.20;;;;;;;;;;5093061;28;20028;-63
2023/05/11 06:15:02;;;;;;;2.75;2.10;;;;;;;;;;5092786;28;20460;-63
2023/05/11 06:17:28;;;;;;;2.90;2.30;;;;;;;;;;5092502;28;20090;-65
2023/05/11 06:19:53;;;;;;;3.25;2.13;;;;;;;;;;5092638;28;20106;-64
2023/05/11 06:22:19;;;;;;;2.65;2.28;;;;;;;;;;5092504;28;20028;-63
2023/05/11 06:24:44;;;;;;;2.40;2.20;;;;;;;;;;5091383;28;20028;-62
2023/05/11 06:27:10;;;;;;;2.58;2.15;;;;;;;;;;5092158;28;20031;-62
2023/05/11 06:29:35;;;;;;;2.97;2.45;;;;;;;;;;5092328;28;20031;-63
2023/05/11 06:32:01;;;;;;;5.63;2.63;;;;;;;;;;5092488;28;20051;-62
2023/05/11 06:34:27;;;;;;;3.72;2.35;;;;;;;;;;5092519;28;20080;-63
2023/05/11 06:36:52;;;;;;;2.33;2.13;;;;;;;;;;5092281;28;20067;-62
2023/05/11 06:39:18;;;;;;;2.28;1.98;;;;;;;;;;5090985;28;20124;-63
2023/05/11 06:41:43;;;;;;;3.03;2.22;;;;;;;;;;5092429;28;20024;-62
2023/05/11 06:44:08;;;;;;;2.42;2.20;;;;;;;;;;5092432;28;20126;-60
2023/05/11 06:46:34;;;;;;;2.78;2.50;;;;;;;;;;5092552;28;20028;-60
2023/05/11 06:49:00;;;;;;;4.88;2.40;;;;;;;;;;5092596;28;20051;-64
2023/05/11 06:51:25;;;;;;;2.92;2.13;;;;;;;;;;5092226;28;20036;-62
2023/05/11 06:53:51;;;;;;;3.63;2.67;;;;;;;;;;5092564;28;20024;-63
2023/05/11 06:56:16;;;;;;;2.85;2.00;;;;;;;;;;5092372;28;20534;-63
2023/05/11 06:58:42;;;;;;;3.80;2.40;;;;;;;;;;5092485;28;20411;-63
2023/05/11 07:01:07;;;;;;;3.78;2.10;;;;;;;;;;5092435;28;20020;-62
2023/05/11 07:03:33;;;;;;;5.05;2.50;;;;;;;;;;5090511;28;20438;-62
2023/05/11 07:05:59;;;;;;;3.08;2.33;;;;;;;;;;5086072;28;20467;-64
2023/05/11 07:08:25;;;;;;;2.80;2.30;;;;;;;;;;5087824;28;20038;-63
2023/05/11 07:10:50;;;;;;;3.10;2.40;;;;;;;;;;5087681;28;20476;-63
2023/05/11 07:13:16;;;;;;;3.42;2.50;;;;;;;;;;5086951;28;20479;-62
2023/05/11 07:15:42;;;;;;;3.30;2.35;;;;;;;;;;5086270;28;20035;-64
2023/05/11 07:18:07;;;;;;;4.00;2.10;;;;;;;;;;5071689;28;20437;-62
2023/05/11 07:20:35;;;;;;;3.70;2.20;;;;;;;;;;5090775;28;20045;-63
2023/05/11 07:23:02;;;;;;;3.80;2.90;;;;;;;;;;5088803;28;20047;-64
2023/05/11 07:25:28;;;;;;;4.05;2.72;;;;;;;;;;5089828;28;20024;-62
2023/05/11 07:27:53;;;;;;;3.80;2.40;;;;;;;;;;5090865;28;20028;-61
2023/05/11 07:30:19;;;;;;;2.75;2.30;;;;;;;;;;5089407;28;20099;-63
2023/05/11 07:32:45;;;;;;;3.92;2.80;;;;;;;;;;5089692;28;20044;-63
2023/05/11 07:35:10;;;;;;;3.83;2.70;;;;;;;;;;5086450;28;20509;-60
2023/05/11 07:37:36;;;;;;;7.53;2.92;;;;;;;;;;5083649;28;20039;-61
2023/05/11 07:40:02;;;;;;;4.78;2.80;;;;;;;;;;5091592;28;20055;-60
2023/05/11 07:42:27;;;;;;;4.28;2.65;;;;;;;;;;5091439;28;20380;-62
2023/05/11 07:44:53;;;;;;;3.08;2.17;;;;;;;;;;5088882;28;20024;-61
2023/05/11 07:47:19;;;;;;;3.88;2.80;;;;;;;;;;5091844;28;20069;-61
2023/05/11 07:49:49;;;;;;;5.18;2.72;;;;;;;;;;5093498;28;20515;-62
2023/05/11 07:52:15;;;;;;;4.57;2.88;;;;;;;;;;5093236;28;20024;-60
2023/05/11 07:54:41;;;;;;;5.13;2.65;;;;;;;;;;5093563;28;20110;-62
2023/05/11 07:57:07;;;;;;;3.72;2.60;;;;;;;;;;5092110;28;20107;-61
2023/05/11 07:59:32;;;;;;;5.05;2.47;;;;;;;;;;5093821;28;20494;-61
2023/05/11 08:01:58;;;;;;;5.93;2.58;;;;;;;;;;5093606;28;20024;-61
2023/05/11 08:04:26;;;;;;;3.42;2.65;;;;;;;;;;5093307;28;20027;-61
2023/05/11 08:06:52;;;;;;;4.70;2.60;;;;;;;;;;5091770;28;20032;-59
2023/05/11 08:09:18;;;;;;;4.35;2.72;;;;;;;;;;5093530;28;20034;-60
2023/05/11 08:11:43;;;;;;;10.13;3.00;;;;;;;;;;5093298;28;20020;-60
2023/05/11 08:14:09;;;;;;;4.90;2.83;;;;;;;;;;5093249;28;20020;-63
2023/05/11 08:16:36;;;;;;;5.28;2.22;;;;;;;;;;5093138;28;20024;-61
2023/05/11 08:19:02;;;;;;;5.25;2.42;;;;;;;;;;5093121;28;20024;-63
2023/05/11 08:21:27;;;;;;;5.80;2.92;;;;;;;;;;5090391;28;20076;-61
2023/05/11 08:23:53;;;;;;;3.70;2.85;;;;;;;;;;5082108;28;20069;-64
2023/05/11 08:26:18;;;;;;;4.78;3.00;;;;;;;;;;5090595;28;20028;-62
2023/05/11 08:28:44;;;;;;;5.45;2.88;;;;;;;;;;5089928;28;20024;-62
2023/05/11 08:31:10;;;;;;;5.93;2.70;;;;;;;;;;5091250;28;20111;-63
2023/05/11 08:33:36;;;;;;;3.60;3.00;;;;;;;;;;5092922;28;20016;-62
2023/05/11 08:36:02;;;;;;;3.70;2.72;;;;;;;;;;5092921;28;20036;-62
2023/05/11 08:38:28;;;;;;;5.63;2.72;;;;;;;;;;5093141;28;20031;-62
2023/05/11 08:40:55;;;;;;;3.95;2.90;;;;;;;;;;5092489;28;20454;-61
2023/05/11 08:43:22;;;;;;;4.70;3.10;;;;;;;;;;5092794;28;20028;-62
2023/05/11 08:45:52;;;;;;;4.47;2.60;;;;;;;;;;5092682;28;20024;-62
2023/05/11 08:48:19;;;;;;;3.13;2.50;;;;;;;;;;5092894;28;20028;-61
2023/05/11 08:50:46;;;;;;;5.60;2.70;;;;;;;;;;5092847;28;20555;-63
2023/05/11 08:53:12;;;;;;;5.57;2.83;;;;;;;;;;5090090;28;20016;-61
2023/05/11 08:55:39;;;;;;;3.90;2.70;;;;;;;;;;5090045;28;20438;-62
2023/05/11 08:58:06;;;;;;;4.47;2.47;;;;;;;;;;5090900;28;20032;-63
2023/05/11 09:00:32;;;;;;;5.22;3.10;;;;;;;;;;5091272;28;20089;-62
2023/05/11 09:02:58;;;;;;;4.32;2.92;;;;;;;;;;5089054;28;20060;-62
2023/05/11 09:05:26;;;;;;;4.63;2.70;;;;;;;;;;5090127;28;20077;-61
2023/05/11 09:07:55;;;;;;;4.32;2.47;;;;;;;;;;5078351;28;20039;-62
2023/05/11 09:10:20;;;;;;;3.85;2.85;;;;;;;;;;5072116;28;20365;-62
2023/05/11 09:12:46;;;;;;;3.78;2.50;;;;;;;;;;5070526;28;20085;-62
2023/05/11 09:15:12;;;;;;;6.95;2.80;;;;;;;;;;5070847;28;20047;-63
2023/05/11 09:17:38;;;;;;;5.00;2.58;;;;;;;;;;5071706;28;20082;-64
2023/05/11 09:20:05;;;;;;;3.60;2.85;;;;;;;;;;5071940;28;20112;-62
2023/05/11 09:22:43;;;;;;;5.07;2.90;;;;;;;;;;5072038;28;20036;-62
2023/05/11 09:25:13;;;;;;;4.60;2.80;;;;;;;;;;5071685;28;20476;-62
2023/05/11 09:27:44;;;;;;;5.72;2.83;;;;;;;;;;5071786;28;20032;-62
2023/05/11 09:30:21;;;;;;;4.45;2.70;;;;;;;;;;5072092;28;20412;-62
2023/05/11 09:32:54;;;;;;;4.43;2.92;;;;;;;;;;5071809;28;20661;-62
2023/05/11 09:35:30;;;;;;;4.70;2.63;;;;;;;;;;5071460;28;20031;-62
2023/05/11 09:37:56;;;;;;;4.13;2.58;;;;;;;;;;5071303;28;20029;-62
2023/05/11 09:40:21;;;;;;;3.80;2.30;;;;;;;;;;5071374;28;20124;-62
2023/05/11 09:42:47;;;;;;;3.38;2.42;;;;;;;;;;5071230;28;20017;-62
2023/05/11 09:45:13;;;;;;;4.20;2.58;;;;;;;;;;5071534;28;20435;-63
2023/05/11 09:47:41;;;;;;;3.88;2.35;;;;;;;;;;5071227;28;20472;-62
2023/05/11 09:50:16;;;;;;;5.57;2.67;;;;;;;;;;5071336;28;20440;-63
2023/05/11 09:52:51;;;;;;;5.95;2.53;;;;;;;;;;5071303;28;20581;-62
2023/05/11 09:55:16;;;;;;;5.38;2.38;;;;;;;;;;5071423;28;20032;-61
2023/05/11 09:57:51;;;;;;;2.85;2.40;;;;;;;;;;5071013;28;20505;-62
2023/05/11 10:00:17;;;;;;;3.97;2.88;;;;;;;;;;5071130;28;20074;-63
2023/05/11 10:02:43;;;;;;;4.70;2.50;;;;;;;;;;5071143;28;20036;-63
2023/05/11 10:05:14;;;;;;;3.88;2.50;;;;;;;;;;5070905;28;20039;-63
2023/05/11 10:07:40;;;;;;;3.28;2.33;;;;;;;;;;5070840;28;20039;-63
2023/05/11 10:10:08;;;;;;;5.57;2.70;;;;;;;;;;5070653;28;20103;-63
2023/05/11 10:12:37;;;;;;;4.03;2.60;;;;;;;;;;5070711;28;20259;-63
2023/05/11 10:15:08;;;;;;;2.90;2.50;;;;;;;;;;5070835;28;20028;-62
2023/05/11 10:17:34;;;;;;;3.50;2.20;;;;;;;;;;5071110;28;20044;-63
2023/05/11 10:20:00;;;;;;;4.05;2.88;;;;;;;;;;5070991;28;20021;-62
2023/05/11 10:22:28;;;;;;;3.50;2.17;;;;;;;;;;5071094;28;20036;-62
2023/05/11 10:24:56;;;;;;;5.05;2.60;;;;;;;;;;5074834;28;20032;-60
2023/05/11 10:27:22;;;;;;;4.38;2.78;;;;;;;;;;5085097;28;20134;-61
2023/05/11 10:29:49;;;;;;;4.68;2.53;;;;;;;;;;5085268;28;20495;-63
2023/05/11 10:32:16;;;;;;;4.47;2.40;;;;;;;;;;5089669;28;20043;-62
2023/05/11 10:34:45;;;;;;;3.95;2.50;;;;;;;;;;5090973;28;20032;-63
2023/05/11 10:37:12;;;;;;;4.05;2.53;;;;;;;;;;5090774;28;20640;-63
2023/05/11 10:39:39;;;;;;;3.45;2.38;;;;;;;;;;5090916;28;20047;-62
2023/05/11 10:42:43;;;;;;;3.83;2.50;;;;;;;;;;5090940;28;20032;-63
2023/05/11 10:45:14;;;;;;;2.80;2.10;;;;;;;;;;5059488;28;20067;-64
2023/05/11 10:48:01;;;;;;;3.90;2.63;;;;;;;;;;5088626;28;20052;-62
2023/05/11 10:51:04;;;;;;;4.85;2.50;;;;;;;;;;5092392;28;20032;-63
2023/05/11 10:53:35;;;;;;;16.10;2.90;;;;;;;;;;5092580;28;20031;-63
2023/05/11 10:56:35;;;;;;;5.43;2.38;;;;;;;;;;5092171;28;20029;-63
2023/05/11 10:59:22;;;;;;;4.90;2.60;;;;;;;;;;5092196;28;20028;-63
2023/05/11 11:01:57;;;;;;;3.08;2.20;;;;;;;;;;5092185;28;20484;-63
2023/05/11 11:04:23;;;;;;;4.65;2.53;;;;;;;;;;5092198;28;20074;-64
2023/05/11 11:07:03;;;;;;;4.10;2.60;;;;;;;;;;5092059;28;20021;-63
2023/05/11 11:09:53;;;;;;;3.95;2.40;;;;;;;;;;5092368;28;20020;-64
2023/05/11 11:12:20;;;;;;;2.53;2.03;;;;;;;;;;5092096;28;20039;-64
2023/05/11 11:15:05;;;;;;;3.97;2.20;;;;;;;;;;5090723;28;20024;-63
2023/05/11 11:17:33;;;;;;;5.00;2.47;;;;;;;;;;5087710;28;20039;-63
2023/05/11 11:20:01;;;;;;;4.13;2.40;;;;;;;;;;5092115;28;20074;-63
2023/05/11 11:22:40;;;;;;;4.03;2.50;;;;;;;;;;5094561;28;20035;-62
2023/05/11 11:25:07;;;;;;;2.47;2.15;;;;;;;;;;5094558;28;20517;-62
2023/05/11 11:27:39;;;;;;;5.00;2.70;;;;;;;;;;5096057;28;20031;-64
2023/05/11 11:30:25;;;;;;;4.03;2.50;;;;;;;;;;5095826;28;20072;-63
2023/05/11 11:33:13;;;;;;;4.20;2.50;;;;;;;;;;5095564;28;20107;-63
2023/05/11 11:35:42;;;;;;;2.88;2.30;;;;;;;;;;5094428;28;20035;-64
2023/05/11 11:38:09;;;;;;;3.75;2.42;;;;;;;;;;5095494;28;20036;-63
2023/05/11 11:40:46;;;;;;;3.58;2.30;;;;;;;;;;5095290;28;20059;-62
2023/05/11 11:43:18;;;;;;;3.65;1.85;;;;;;;;;;5095558;28;20533;-63
2023/05/11 11:45:52;;;;;;;3.97;2.30;;;;;;;;;;5095584;28;20077;-63
2023/05/11 11:48:35;;;;;;;5.28;2.22;;;;;;;;;;5095508;28;20045;-63
2023/05/11 11:51:06;;;;;;;3.80;2.30;;;;;;;;;;5095368;28;20114;-62
2023/05/11 11:53:40;;;;;;;4.30;2.17;;;;;;;;;;5095253;28;20032;-63
2023/05/11 11:56:14;;;;;;;2.85;2.30;;;;;;;;;;5095047;28;20028;-63
2023/05/11 11:58:40;;;;;;;5.50;2.22;;;;;;;;;;5095122;28;20028;-62
2023/05/11 12:01:11;;;;;;;4.63;2.13;;;;;;;;;;5095374;28;20027;-63
2023/05/11 12:03:38;;;;;;;5.10;2.60;;;;;;;;;;5095158;28;20024;-62
2023/05/11 12:06:06;;;;;;;2.83;2.20;;;;;;;;;;5094936;28;20032;-62
2023/05/11 12:08:32;;;;;;;2.83;2.50;;;;;;;;;;5094973;28;20500;-61
2023/05/11 12:11:00;;;;;;;3.38;2.25;;;;;;;;;;5095058;28;20034;-62
2023/05/11 12:13:26;;;;;;;3.45;2.08;;;;;;;;;;5095355;28;20387;-62
2023/05/11 12:16:12;;;;;;;3.30;2.20;;;;;;;;;;5094983;28;20047;-62
2023/05/11 12:18:39;;;;;;;4.43;2.13;;;;;;;;;;5094674;28;20471;-63
2023/05/11 12:21:05;;;;;;;2.88;2.20;;;;;;;;;;5094979;28;20020;-63
2023/05/11 12:23:31;;;;;;;3.33;2.20;;;;;;;;;;5094789;28;20379;-61
2023/05/11 12:26:03;;;;;;;3.88;2.38;;;;;;;;;;5094707;28;20024;-63
2023/05/11 12:28:29;;;;;;;2.30;2.10;;;;;;;;;;5094906;28;20537;-62
2023/05/11 12:30:56;;;;;;;2.42;2.17;;;;;;;;;;5093176;28;20028;-63
2023/05/11 12:33:22;;;;;;;3.60;2.17;;;;;;;;;;5094153;28;20376;-63
2023/05/11 12:35:56;;;;;;;2.80;2.20;;;;;;;;;;5094455;28;20032;-62
2023/05/11 12:38:22;;;;;;;2.30;2.03;;;;;;;;;;5094361;28;20028;-63
2023/05/11 12:40:49;;;;;;;2.90;2.53;;;;;;;;;;5093012;28;20032;-63
2023/05/11 12:43:20;;;;;;;4.10;2.28;;;;;;;;;;5092744;28;20032;-62
2023/05/11 12:45:46;;;;;;;5.20;2.75;;;;;;;;;;5092655;28;20024;-63
2023/05/11 12:48:13;;;;;;;2.60;2.20;;;;;;;;;;5091433;28;20066;-62
2023/05/11 12:50:43;;;;;;;3.38;2.50;;;;;;;;;;5092765;28;20039;-62
2023/05/11 12:53:18;;;;;;;3.13;2.40;;;;;;;;;;5092818;28;20027;-61
2023/05/11 12:55:55;;;;;;;2.38;2.15;;;;;;;;;;5092518;28;20035;-62
2023/05/11 12:58:21;;;;;;;3.95;2.38;;;;;;;;;;5092794;28;20403;-62
2023/05/11 13:01:05;;;;;;;2.30;2.10;;;;;;;;;;5092383;28;20024;-62
2023/05/11 13:03:34;;;;;;;2.42;2.00;;;;;;;;;;5092800;28;20035;-61
2023/05/11 13:06:10;;;;;;;3.30;2.17;;;;;;;;;;5092574;28;20123;-62
2023/05/11 13:08:39;;;;;;;4.60;2.17;;;;;;;;;;5092572;28;20024;-63
2023/05/11 13:11:25;;;;;;;3.28;2.70;;;;;;;;;;5090873;28;20028;-62
2023/05/11 13:13:55;;;;;;;7.60;2.75;;;;;;;;;;5092462;28;20032;-63
2023/05/11 13:16:32;;;;;;;9.77;2.80;;;;;;;;;;5092223;28;20062;-63
2023/05/11 13:19:08;;;;;;;3.60;2.78;;;;;;;;;;5091957;28;20028;-64
2023/05/11 13:21:34;;;;;;;5.65;2.85;;;;;;;;;;5092220;28;20475;-63
2023/05/11 13:24:02;;;;;;;6.53;2.92;;;;;;;;;;5092151;28;20035;-63
2023/05/11 13:26:29;;;;;;;3.25;2.47;;;;;;;;;;5092302;28;20384;-63
2023/05/11 13:28:55;;;;;;;4.90;2.70;;;;;;;;;;5092183;28;20031;-62
2023/05/11 13:31:21;;;;;;;4.70;2.67;;;;;;;;;;5092153;28;20027;-62
2023/05/11 13:33:49;;;;;;;6.97;2.50;;;;;;;;;;5092100;28;20472;-62
2023/05/11 13:36:15;;;;;;;7.60;2.88;;;;;;;;;;5091912;28;20032;-61
2023/05/11 13:38:41;;;;;;;5.43;2.45;;;;;;;;;;5091646;28;20357;-62
2023/05/11 13:41:06;;;;;;;5.82;2.42;;;;;;;;;;5091472;28;20055;-62
2023/05/11 13:43:32;;;;;;;4.03;2.28;;;;;;;;;;5091547;28;20484;-62
2023/05/11 13:45:58;;;;;;;4.72;2.90;;;;;;;;;;5091027;28;20027;-62
2023/05/11 13:48:23;;;;;;;9.40;3.08;;;;;;;;;;5091669;28;20036;-61
2023/05/11 13:50:49;;;;;;;5.55;3.47;;;;;;;;;;5091418;28;20103;-61
2023/05/11 13:53:15;;;;;;;8.13;3.08;;;;;;;;;;5091698;28;20113;-61
2023/05/11 13:55:41;;;;;;;5.35;3.30;;;;;;;;;;5091394;28;20028;-62
2023/05/11 13:58:07;;;;;;;20.15;4.50;;;;;;;;;;5091454;28;20043;-62
2023/05/11 14:00:33;;;;;;;12.40;3.28;;;;;;;;;;5091174;28;20044;-63
2023/05/11 14:02:59;;;;;;;19.60;4.32;;;;;;;;;;5091586;28;20053;-63
2023/05/11 14:05:25;;;;;;;12.82;4.80;;;;;;;;;;5089990;28;20073;-62
2023/05/11 14:07:51;;;;;;;16.25;4.47;;;;;;;;;;5091180;28;20035;-63
2023/05/11 14:10:17;;;;;;;8.30;3.97;;;;;;;;;;5091563;28;20124;-63
2023/05/11 14:12:43;;;;;;;9.50;4.45;;;;;;;;;;5090985;28;20024;-62
2023/05/11 14:15:10;;;;;;;10.00;4.50;;;;;;;;;;5091079;28;20120;-63
2023/05/11 14:17:35;;;;;;;12.88;4.70;;;;;;;;;;5090995;28;20036;-62
2023/05/11 14:20:01;;;;;;;12.77;5.10;;;;;;;;;;5091109;28;20031;-62
2023/05/11 14:22:27;;;;;;;19.67;5.50;;;;;;;;;;5091267;28;20042;-62
2023/05/11 14:24:53;;;;;;;22.83;5.15;;;;;;;;;;5090956;28;20267;-62
2023/05/11 14:27:19;;;;;;;21.58;5.10;;;;;;;;;;5091059;28;20063;-62
2023/05/11 14:29:44;;;;;;;15.00;4.32;;;;;;;;;;5090900;28;20031;-62
2023/05/11 14:32:10;;;;;;;14.93;4.68;;;;;;;;;;5090978;28;20031;-62
2023/05/11 14:34:36;;;;;;;20.92;4.82;;;;;;;;;;5091160;28;20039;-63
2023/05/11 14:37:02;;;;;;;14.82;5.10;;;;;;;;;;5091059;28;20384;-63
2023/05/11 14:39:27;;;;;;;14.05;5.10;;;;;;;;;;5090860;28;20032;-62
2023/05/11 14:41:53;;;;;;;14.93;4.07;;;;;;;;;;5091147;28;20110;-63
2023/05/11 14:44:19;;;;;;;12.15;4.53;;;;;;;;;;5090733;28;20460;-61
2023/05/11 14:46:45;;;;;;;13.95;4.72;;;;;;;;;;5090680;28;20028;-63
2023/05/11 14:49:11;;;;;;;9.07;4.28;;;;;;;;;;5090786;28;20130;-62